Time;durP1;ratioP1;P1;durP2;ratioP2;P2;SDS_P1;SDS_P2;PMS_P1;PMS_P2;Temp;Humidity;BMP_temperature;BMP_pressure;BME280_temperature;BME280_humidity;BME280_pressure;Samples;Min_cycle;Max_cycle;Signal;HPM_P1;HPM_P2
2024/01/04 00:00:28;;;;;;;1.93;0.60;;;8.00;29.30;;;;;;4999546;28;20536;-70
2024/01/04 00:02:53;;;;;;;1.70;0.70;;;8.00;29.60;;;;;;5017495;28;20468;-70
2024/01/04 00:05:19;;;;;;;2.90;0.80;;;8.00;29.80;;;;;;5017393;28;20631;-70
2024/01/04 00:07:45;;;;;;;1.87;0.80;;;8.00;30.20;;;;;;4999130;28;20198;-70
2024/01/04 00:10:12;;;;;;;2.00;0.70;;;8.00;31.40;;;;;;5016675;28;20195;-70
2024/01/04 00:12:38;;;;;;;2.63;0.90;;;8.00;32.00;;;;;;5000218;28;20422;-70
2024/01/04 00:15:04;;;;;;;2.27;0.73;;;7.90;32.60;;;;;;5018535;28;20963;-69
2024/01/04 00:17:30;;;;;;;2.80;0.90;;;7.80;33.90;;;;;;5019178;28;20183;-70
2024/01/04 00:19:56;;;;;;;2.27;0.77;;;7.70;33.90;;;;;;5019076;28;20972;-70
2024/01/04 00:22:21;;;;;;;1.60;0.60;;;7.60;34.80;;;;;;5018200;28;20457;-70
2024/01/04 00:24:47;;;;;;;2.33;1.13;;;7.60;34.40;;;;;;5017024;28;20443;-71
2024/01/04 00:27:12;;;;;;;1.70;0.60;;;7.60;33.90;;;;;;5017326;28;20653;-71
2024/01/04 00:29:38;;;;;;;2.90;0.80;;;7.70;33.50;;;;;;5016580;28;20675;-70
2024/01/04 00:32:04;;;;;;;2.37;0.70;;;7.80;31.40;;;;;;5016348;28;20175;-70
2024/01/04 00:34:29;;;;;;;2.97;1.30;;;7.90;30.40;;;;;;5016079;28;20199;-70
2024/01/04 00:36:57;;;;;;;5.20;1.83;;;8.00;29.70;;;;;;5015283;28;20222;-70
2024/01/04 00:39:24;;;;;;;4.20;1.20;;;8.00;29.20;;;;;;5015140;28;20217;-70
2024/01/04 00:41:53;;;;;;;4.03;1.27;;;7.90;29.00;;;;;;5015672;28;20417;-70
2024/01/04 00:44:19;;;;;;;3.20;0.60;;;7.80;28.80;;;;;;5015867;28;20511;-70
2024/01/04 00:46:45;;;;;;;2.80;1.00;;;7.90;29.10;;;;;;4999599;28;20426;-70
2024/01/04 00:49:11;;;;;;;1.90;0.70;;;7.90;28.70;;;;;;5017865;28;20426;-71
2024/01/04 00:51:36;;;;;;;2.67;1.00;;;7.90;28.70;;;;;;5016940;28;20186;-72
2024/01/04 00:54:02;;;;;;;1.70;0.50;;;7.80;29.70;;;;;;5017768;28;20464;-70
2024/01/04 00:56:35;;;;;;;3.50;1.43;;;7.80;30.10;;;;;;4999251;28;20581;-71
2024/01/04 00:59:01;;;;;;;4.50;1.00;;;7.60;31.20;;;;;;4999691;28;20217;-70
2024/01/04 01:01:27;;;;;;;1.50;0.60;;;7.60;32.50;;;;;;5016803;28;20782;-70
2024/01/04 01:03:52;;;;;;;5.47;1.17;;;7.50;32.10;;;;;;5015640;28;20823;-70
2024/01/04 01:06:18;;;;;;;4.73;1.03;;;7.60;32.50;;;;;;5015084;28;20186;-70
2024/01/04 01:08:44;;;;;;;2.80;1.00;;;7.60;33.30;;;;;;5015060;28;20692;-70
2024/01/04 01:11:09;;;;;;;2.23;0.70;;;7.60;33.70;;;;;;4998405;28;20176;-70
2024/01/04 01:13:35;;;;;;;1.73;0.80;;;7.70;33.30;;;;;;5015727;28;20406;-71
2024/01/04 01:16:01;;;;;;;2.33;0.83;;;7.70;34.30;;;;;;5014174;28;20547;-71
2024/01/04 01:18:27;;;;;;;2.20;0.80;;;7.70;33.30;;;;;;5014012;28;20729;-71
2024/01/04 01:20:54;;;;;;;2.10;0.90;;;7.70;33.20;;;;;;5013812;28;20213;-72
2024/01/04 01:23:19;;;;;;;2.13;0.90;;;7.70;34.40;;;;;;5013847;28;20437;-70
2024/01/04 01:25:45;;;;;;;1.73;0.67;;;7.70;33.30;;;;;;5013842;28;20424;-70
2024/01/04 01:28:11;;;;;;;2.77;0.70;;;7.70;34.20;;;;;;5013695;28;20542;-70
2024/01/04 01:30:36;;;;;;;2.23;0.80;;;7.70;34.10;;;;;;5013589;28;20550;-70
2024/01/04 01:33:02;;;;;;;2.03;0.90;;;7.60;34.00;;;;;;5013720;28;20191;-70
2024/01/04 01:35:28;;;;;;;3.30;0.83;;;7.60;33.80;;;;;;4996102;28;20270;-71
2024/01/04 01:37:53;;;;;;;2.43;1.03;;;7.60;33.90;;;;;;4996089;28;20418;-71
2024/01/04 01:40:19;;;;;;;2.20;1.50;;;7.50;32.90;;;;;;5013545;28;20677;-71
2024/01/04 01:42:48;;;;;;;3.00;1.10;;;7.50;32.70;;;;;;5013417;28;20183;-71
2024/01/04 01:45:17;;;;;;;1.70;0.57;;;7.70;30.90;;;;;;5013800;28;20228;-72
2024/01/04 01:47:45;;;;;;;1.50;0.50;;;7.70;30.00;;;;;;4996234;28;20416;-71
2024/01/04 01:50:11;;;;;;;2.43;0.67;;;7.70;30.10;;;;;;5014179;28;21018;-73
2024/01/04 01:52:37;;;;;;;2.77;0.67;;;7.70;30.00;;;;;;5013401;28;20491;-72
2024/01/04 01:55:03;;;;;;;1.67;0.63;;;7.80;29.90;;;;;;5013776;28;20221;-73
2024/01/04 01:57:31;;;;;;;2.33;1.00;;;7.80;29.60;;;;;;4996190;28;20197;-72
2024/01/04 01:59:57;;;;;;;3.13;1.00;;;7.80;28.70;;;;;;5013436;28;20465;-71
2024/01/04 02:02:23;;;;;;;1.90;0.93;;;7.90;28.40;;;;;;5013467;28;20849;-70
2024/01/04 02:04:49;;;;;;;3.63;0.90;;;7.90;28.30;;;;;;5013438;28;20457;-70
2024/01/04 02:07:14;;;;;;;5.47;1.00;;;7.90;28.80;;;;;;5013796;28;20418;-71
2024/01/04 02:09:40;;;;;;;1.70;1.00;;;7.90;28.20;;;;;;5015261;28;20183;-70
2024/01/04 02:12:06;;;;;;;1.57;0.53;;;8.00;27.50;;;;;;5020999;28;20220;-71
2024/01/04 02:14:32;;;;;;;2.97;1.37;;;8.00;27.80;;;;;;5022124;28;20215;-71
2024/01/04 02:16:58;;;;;;;3.93;0.93;;;8.00;27.70;;;;;;5000090;28;20516;-71
2024/01/04 02:19:24;;;;;;;2.17;1.00;;;8.00;29.30;;;;;;5013598;28;20568;-71
2024/01/04 02:21:50;;;;;;;1.90;0.80;;;7.90;30.90;;;;;;5012816;28;20184;-71
2024/01/04 02:24:15;;;;;;;3.20;1.17;;;7.90;34.40;;;;;;5012843;28;20448;-70
2024/01/04 02:26:41;;;;;;;3.50;1.27;;;7.80;35.30;;;;;;5012933;28;20264;-71
2024/01/04 02:29:06;;;;;;;1.70;0.70;;;7.70;38.20;;;;;;4995121;28;20190;-70
2024/01/04 02:31:32;;;;;;;2.87;1.20;;;7.70;38.90;;;;;;4994897;28;20654;-70
2024/01/04 02:33:57;;;;;;;1.53;0.63;;;7.60;40.30;;;;;;4995081;28;20294;-71
2024/01/04 02:36:24;;;;;;;2.10;1.00;;;7.50;40.60;;;;;;5012512;28;20187;-71
2024/01/04 02:38:49;;;;;;;1.80;0.70;;;7.50;41.40;;;;;;4994953;28;20258;-70
2024/01/04 02:41:15;;;;;;;2.50;0.90;;;7.40;43.10;;;;;;5012252;28;20417;-72
2024/01/04 02:43:40;;;;;;;3.00;0.87;;;7.40;43.90;;;;;;5012505;28;20202;-70
2024/01/04 02:46:06;;;;;;;2.37;0.83;;;7.40;45.20;;;;;;5012332;28;20261;-71
2024/01/04 02:48:31;;;;;;;3.30;0.60;;;7.30;45.60;;;;;;5012373;28;20208;-69
2024/01/04 02:50:57;;;;;;;3.57;1.00;;;7.30;46.40;;;;;;5012222;28;20187;-70
2024/01/04 02:53:23;;;;;;;2.63;0.80;;;7.30;47.60;;;;;;5012382;28;20308;-71
2024/01/04 02:55:48;;;;;;;2.20;0.73;;;7.30;48.10;;;;;;5012272;28;20185;-70
2024/01/04 02:58:14;;;;;;;2.57;0.70;;;7.30;47.50;;;;;;5012199;28;20681;-70
2024/01/04 03:00:40;;;;;;;1.87;1.00;;;7.30;48.90;;;;;;5011929;28;20672;-70
2024/01/04 03:03:05;;;;;;;2.47;1.00;;;7.30;49.20;;;;;;5012187;28;20524;-71
2024/01/04 03:05:31;;;;;;;1.60;0.70;;;7.30;50.10;;;;;;5012162;28;20688;-71
2024/01/04 03:07:56;;;;;;;2.00;0.80;;;7.20;51.70;;;;;;4994460;28;20558;-70
2024/01/04 03:10:22;;;;;;;2.07;0.70;;;7.30;52.80;;;;;;5012156;28;20698;-69
2024/01/04 03:12:47;;;;;;;2.63;1.07;;;7.30;53.40;;;;;;5011978;28;20217;-70
2024/01/04 03:15:13;;;;;;;4.03;1.17;;;7.20;54.70;;;;;;5012343;28;20209;-69
2024/01/04 03:17:38;;;;;;;3.03;1.00;;;7.10;55.60;;;;;;4994206;28;20222;-69
2024/01/04 03:20:05;;;;;;;3.37;1.30;;;7.10;56.90;;;;;;5011892;28;20206;-69
2024/01/04 03:22:30;;;;;;;1.77;0.60;;;7.10;57.90;;;;;;5011704;28;20179;-69
2024/01/04 03:24:56;;;;;;;1.50;0.60;;;7.10;59.50;;;;;;4994211;28;21031;-70
2024/01/04 03:27:22;;;;;;;4.77;1.20;;;7.00;60.70;;;;;;4994302;28;20708;-70
2024/01/04 03:29:49;;;;;;;4.30;1.10;;;7.00;61.70;;;;;;5012679;28;20181;-69
2024/01/04 03:32:14;;;;;;;2.40;0.60;;;6.90;62.70;;;;;;5012942;28;20181;-69
2024/01/04 03:34:40;;;;;;;3.93;0.90;;;6.90;63.10;;;;;;5000553;28;20448;-70
2024/01/04 03:37:05;;;;;;;2.63;1.00;;;6.90;63.60;;;;;;5012667;28;20191;-70
2024/01/04 03:39:31;;;;;;;2.07;0.60;;;6.90;64.50;;;;;;5012531;28;20286;-70
2024/01/04 03:41:56;;;;;;;4.53;0.90;;;6.90;63.30;;;;;;5012075;28;20189;-70
2024/01/04 03:44:22;;;;;;;2.10;0.80;;;6.80;62.30;;;;;;5012267;28;20198;-70
2024/01/04 03:46:48;;;;;;;2.50;0.70;;;6.80;62.20;;;;;;4994546;28;20264;-70
2024/01/04 03:49:13;;;;;;;7.10;1.53;;;6.90;61.50;;;;;;5011860;28;20193;-70
2024/01/04 03:51:39;;;;;;;3.10;0.70;;;6.80;60.70;;;;;;5011480;28;20198;-70
2024/01/04 03:54:04;;;;;;;2.40;0.70;;;6.80;59.40;;;;;;5011778;28;20202;-70
2024/01/04 03:56:30;;;;;;;2.57;0.80;;;6.80;60.00;;;;;;4994244;28;20192;-70
2024/01/04 03:58:55;;;;;;;1.93;0.77;;;6.80;60.10;;;;;;5011512;28;20261;-69
2024/01/04 04:01:21;;;;;;;1.90;1.00;;;6.70;60.80;;;;;;4993850;28;20199;-69
2024/01/04 04:03:47;;;;;;;3.13;0.87;;;6.70;60.50;;;;;;4993947;28;20198;-68
2024/01/04 04:06:12;;;;;;;1.50;0.60;;;6.70;60.10;;;;;;5011561;28;20414;-69
2024/01/04 04:08:39;;;;;;;4.17;1.20;;;6.70;59.30;;;;;;5011570;28;20530;-70
2024/01/04 04:11:17;;;;;;;1.67;0.60;;;6.70;60.00;;;;;;5011469;28;20183;-70
2024/01/04 04:13:43;;;;;;;2.50;0.87;;;6.70;60.60;;;;;;4993665;28;20994;-69
2024/01/04 04:16:10;;;;;;;2.03;0.60;;;6.70;60.50;;;;;;4993970;28;20531;-69
2024/01/04 04:18:35;;;;;;;1.80;0.63;;;6.70;60.00;;;;;;5011540;28;20555;-69
2024/01/04 04:21:01;;;;;;;2.70;0.50;;;6.70;61.10;;;;;;4993953;28;20191;-70
2024/01/04 04:23:27;;;;;;;2.13;0.60;;;6.70;60.10;;;;;;4994049;28;20740;-70
2024/01/04 04:25:53;;;;;;;2.60;0.77;;;6.70;60.60;;;;;;5011622;28;20309;-70
2024/01/04 04:28:19;;;;;;;4.57;0.90;;;6.70;61.30;;;;;;4993720;28;20507;-70
2024/01/04 04:30:44;;;;;;;1.87;0.77;;;6.70;61.00;;;;;;5011126;28;20182;-70
2024/01/04 04:33:10;;;;;;;2.20;0.80;;;6.70;60.40;;;;;;5012147;28;20283;-69
2024/01/04 04:35:35;;;;;;;1.83;0.67;;;6.70;60.30;;;;;;5014901;28;20255;-70
2024/01/04 04:38:01;;;;;;;1.53;0.57;;;6.80;60.10;;;;;;5014798;28;20188;-70
2024/01/04 04:40:27;;;;;;;2.70;0.80;;;6.70;58.70;;;;;;5014875;28;20695;-70
2024/01/04 04:42:52;;;;;;;1.33;0.50;;;6.70;58.20;;;;;;5014518;28;20285;-70
2024/01/04 04:45:18;;;;;;;7.20;0.97;;;6.80;57.60;;;;;;5014666;28;20209;-69
2024/01/04 04:47:43;;;;;;;1.40;0.50;;;6.80;56.00;;;;;;5014681;28;20201;-70
2024/01/04 04:50:09;;;;;;;3.30;1.13;;;6.90;55.00;;;;;;5014672;28;20239;-70
2024/01/04 04:52:34;;;;;;;4.90;1.17;;;7.00;53.50;;;;;;5014424;28;20189;-69
2024/01/04 04:55:00;;;;;;;4.13;1.27;;;7.00;54.40;;;;;;5014617;28;20240;-70
2024/01/04 04:57:25;;;;;;;1.40;0.50;;;7.00;53.50;;;;;;5014846;28;20216;-71
2024/01/04 04:59:51;;;;;;;2.17;0.90;;;7.00;52.70;;;;;;5014353;28;20623;-71
2024/01/04 05:02:16;;;;;;;3.00;0.80;;;7.10;53.00;;;;;;4996605;28;20729;-70
2024/01/04 05:04:43;;;;;;;2.60;0.70;;;7.10;50.90;;;;;;4996600;28;20696;-70
2024/01/04 05:07:09;;;;;;;2.97;0.90;;;7.10;49.90;;;;;;5014351;28;20173;-70
2024/01/04 05:09:34;;;;;;;1.60;0.60;;;7.20;50.40;;;;;;5014426;28;20424;-70
2024/01/04 05:12:00;;;;;;;1.70;0.83;;;7.20;50.00;;;;;;5013991;28;20181;-71
2024/01/04 05:14:25;;;;;;;1.67;0.80;;;7.20;49.50;;;;;;4996918;28;20223;-70
2024/01/04 05:16:51;;;;;;;1.60;0.50;;;7.20;50.00;;;;;;5014965;28;20247;-70
2024/01/04 05:19:16;;;;;;;4.40;0.70;;;7.20;50.00;;;;;;4996892;28;20226;-70
2024/01/04 05:21:42;;;;;;;1.70;0.70;;;7.20;50.00;;;;;;5014275;28;20182;-70
2024/01/04 05:24:08;;;;;;;2.50;0.87;;;7.10;49.90;;;;;;5014222;28;20198;-70
2024/01/04 05:26:33;;;;;;;2.83;0.70;;;7.10;49.10;;;;;;5014314;28;20178;-70
2024/01/04 05:28:59;;;;;;;3.80;0.77;;;7.10;49.60;;;;;;5014213;28;20185;-70
2024/01/04 05:31:25;;;;;;;3.30;1.00;;;7.00;49.10;;;;;;4996467;28;20241;-70
2024/01/04 05:33:51;;;;;;;2.07;0.87;;;7.00;49.70;;;;;;5014170;28;20220;-70
2024/01/04 05:36:17;;;;;;;1.50;0.50;;;7.00;49.10;;;;;;5014230;28;20816;-71
2024/01/04 05:38:42;;;;;;;1.70;0.60;;;7.00;49.50;;;;;;5014306;28;20236;-72
2024/01/04 05:41:08;;;;;;;2.57;0.87;;;7.00;49.90;;;;;;4996516;28;20175;-71
2024/01/04 05:43:34;;;;;;;3.03;0.50;;;7.00;49.30;;;;;;5014265;28;20194;-71
2024/01/04 05:46:06;;;;;;;3.50;0.70;;;7.10;49.00;;;;;;5013237;28;20265;-72
2024/01/04 05:48:32;;;;;;;1.83;0.70;;;7.10;48.70;;;;;;5013946;28;20428;-70
2024/01/04 05:50:58;;;;;;;2.77;0.80;;;7.10;48.90;;;;;;4996315;28;20813;-70
2024/01/04 05:53:23;;;;;;;1.80;0.70;;;7.10;48.70;;;;;;4996146;28;20455;-70
2024/01/04 05:55:49;;;;;;;4.43;0.93;;;7.10;48.00;;;;;;5013660;28;20179;-70
2024/01/04 05:58:15;;;;;;;4.63;0.73;;;7.10;48.30;;;;;;5013680;28;20179;-71
2024/01/04 06:00:40;;;;;;;2.03;1.13;;;7.10;49.00;;;;;;5013401;28;20268;-70
2024/01/04 06:03:06;;;;;;;4.90;1.10;;;7.10;47.80;;;;;;5013568;28;20248;-69
2024/01/04 06:05:31;;;;;;;6.00;1.10;;;7.30;47.10;;;;;;4996178;28;20217;-69
2024/01/04 06:07:57;;;;;;;2.30;0.90;;;7.10;45.90;;;;;;4996220;28;20185;-70
2024/01/04 06:10:23;;;;;;;2.90;0.90;;;7.20;44.70;;;;;;5013479;28;20662;-70
2024/01/04 06:12:48;;;;;;;2.80;1.07;;;7.10;43.80;;;;;;5012861;28;20700;-68
2024/01/04 06:15:14;;;;;;;2.00;0.83;;;7.10;44.20;;;;;;5013579;28;20560;-71
2024/01/04 06:17:39;;;;;;;3.10;1.03;;;7.10;42.70;;;;;;5014055;28;20429;-70
2024/01/04 06:20:05;;;;;;;1.70;0.63;;;7.00;43.10;;;;;;5013164;28;20676;-72
2024/01/04 06:22:30;;;;;;;1.90;0.70;;;6.90;44.30;;;;;;5013026;28;20185;-71
2024/01/04 06:24:56;;;;;;;3.50;1.27;;;6.90;44.20;;;;;;4995337;28;20288;-71
2024/01/04 06:27:22;;;;;;;1.90;0.90;;;6.90;44.40;;;;;;5013176;28;20211;-71
2024/01/04 06:29:47;;;;;;;1.83;0.83;;;6.80;44.60;;;;;;5013370;28;20181;-71
2024/01/04 06:32:13;;;;;;;2.93;1.10;;;6.80;44.00;;;;;;5012963;28;20182;-71
2024/01/04 06:34:38;;;;;;;4.60;1.33;;;6.80;44.70;;;;;;5013183;28;20200;-69
2024/01/04 06:37:04;;;;;;;2.10;0.97;;;6.80;44.70;;;;;;5014469;28;20256;-70
2024/01/04 06:39:30;;;;;;;2.13;0.90;;;6.70;44.60;;;;;;5014584;28;20372;-70
2024/01/04 06:41:56;;;;;;;2.57;0.77;;;6.80;44.30;;;;;;5014413;28;20181;-71
2024/01/04 06:44:22;;;;;;;2.80;0.67;;;6.80;44.60;;;;;;4996474;28;20565;-70
2024/01/04 06:46:48;;;;;;;2.40;0.83;;;6.80;44.70;;;;;;5013550;28;20417;-69
2024/01/04 06:49:14;;;;;;;3.87;1.70;;;6.80;44.80;;;;;;4996236;28;20285;-69
2024/01/04 06:51:39;;;;;;;1.80;0.70;;;6.80;45.90;;;;;;5012981;28;20454;-69
2024/01/04 06:54:05;;;;;;;1.77;0.60;;;6.80;44.70;;;;;;5012862;28;20192;-69
2024/01/04 06:56:30;;;;;;;3.30;1.03;;;6.90;44.40;;;;;;5012726;28;20181;-69
2024/01/04 06:58:56;;;;;;;6.90;1.90;;;6.90;44.40;;;;;;5012735;28;20237;-68
2024/01/04 07:01:22;;;;;;;2.73;0.70;;;6.90;43.60;;;;;;5012582;28;20216;-69
2024/01/04 07:03:49;;;;;;;1.67;0.67;;;6.80;43.70;;;;;;5012684;28;20487;-69
2024/01/04 07:06:14;;;;;;;1.60;0.77;;;6.80;42.70;;;;;;5013067;28;20182;-69
2024/01/04 07:08:40;;;;;;;1.73;0.60;;;6.90;42.00;;;;;;5013227;28;20416;-69
2024/01/04 07:11:06;;;;;;;3.00;0.77;;;6.90;41.60;;;;;;5012377;28;20235;-69
2024/01/04 07:13:34;;;;;;;3.40;0.77;;;7.00;40.60;;;;;;5018273;23;20229;-70
2024/01/04 07:16:04;;;;;;;1.80;0.80;;;6.90;41.30;;;;;;4994753;28;20174;-70
2024/01/04 07:18:30;;;;;;;3.30;0.70;;;6.90;39.70;;;;;;5012632;28;20409;-70
2024/01/04 07:20:55;;;;;;;1.90;0.67;;;7.00;40.10;;;;;;5012241;28;20413;-70
2024/01/04 07:23:21;;;;;;;5.33;0.70;;;7.00;40.10;;;;;;5012351;28;20200;-69
2024/01/04 07:25:47;;;;;;;2.60;0.70;;;7.00;39.80;;;;;;5012262;28;20249;-70
2024/01/04 07:28:12;;;;;;;5.50;1.10;;;7.00;39.80;;;;;;5012261;28;20502;-69
2024/01/04 07:30:38;;;;;;;1.80;0.60;;;7.00;39.80;;;;;;5011786;28;20180;-69
2024/01/04 07:33:04;;;;;;;1.87;0.80;;;7.00;39.50;;;;;;5011428;28;20668;-70
2024/01/04 07:35:30;;;;;;;3.70;1.87;;;7.00;39.10;;;;;;5011725;28;20797;-70
2024/01/04 07:37:57;;;;;;;2.47;0.93;;;7.00;38.30;;;;;;5010906;28;20463;-72
2024/01/04 07:40:22;;;;;;;2.33;1.00;;;7.10;38.80;;;;;;4988403;28;20272;-70
2024/01/04 07:42:48;;;;;;;1.70;0.70;;;7.10;37.60;;;;;;5014444;28;20435;-70
2024/01/04 07:45:13;;;;;;;2.90;1.00;;;7.10;37.40;;;;;;5010933;28;20204;-68
2024/01/04 07:47:39;;;;;;;2.33;0.80;;;7.10;37.90;;;;;;5011379;28;20645;-68
2024/01/04 07:50:05;;;;;;;2.87;1.17;;;7.20;38.30;;;;;;5011834;28;20200;-67
2024/01/04 07:52:31;;;;;;;2.60;1.03;;;7.20;36.90;;;;;;5011688;28;20450;-68
2024/01/04 07:54:56;;;;;;;3.30;1.23;;;7.30;36.10;;;;;;5011901;28;20670;-68
2024/01/04 07:57:22;;;;;;;3.00;0.90;;;7.20;35.50;;;;;;4993019;28;20744;-68
2024/01/04 07:59:47;;;;;;;1.87;0.87;;;7.20;35.60;;;;;;4991753;28;20244;-68
2024/01/04 08:02:13;;;;;;;11.33;1.40;;;7.20;33.30;;;;;;4991939;28;20524;-74
2024/01/04 08:04:39;;;;;;;3.87;1.20;;;7.10;34.40;;;;;;4991955;28;20254;-69
2024/01/04 08:07:04;;;;;;;3.90;1.20;;;7.00;34.60;;;;;;4991844;28;20178;-69
2024/01/04 08:09:30;;;;;;;2.87;1.10;;;7.00;35.30;;;;;;4994885;28;20187;-69
2024/01/04 08:11:55;;;;;;;4.20;1.47;;;6.90;35.60;;;;;;4995553;28;20182;-69
2024/01/04 08:14:21;;;;;;;2.53;0.90;;;6.90;35.80;;;;;;4996327;28;20215;-69
2024/01/04 08:16:47;;;;;;;5.50;1.00;;;7.10;36.20;;;;;;4995610;28;20186;-69
2024/01/04 08:19:13;;;;;;;3.20;1.37;;;7.10;36.00;;;;;;4995034;28;20212;-69
2024/01/04 08:21:39;;;;;;;2.10;1.00;;;7.20;35.90;;;;;;4977956;28;20182;-69
2024/01/04 08:24:04;;;;;;;6.37;1.40;;;7.30;36.80;;;;;;4995409;28;20440;-69
2024/01/04 08:26:30;;;;;;;5.33;1.47;;;7.50;35.40;;;;;;4995474;28;20225;-69
2024/01/04 08:28:56;;;;;;;6.03;1.63;;;7.50;35.30;;;;;;4995237;28;20419;-69
2024/01/04 08:31:21;;;;;;;2.43;1.20;;;7.60;35.10;;;;;;4995159;28;20186;-69
2024/01/04 08:33:47;;;;;;;3.93;1.03;;;7.70;32.70;;;;;;4995307;28;20231;-69
2024/01/04 08:36:13;;;;;;;1.97;0.93;;;7.80;32.90;;;;;;4995156;28;20551;-68
2024/01/04 08:38:38;;;;;;;1.93;0.90;;;7.70;31.40;;;;;;4995216;28;20174;-68
2024/01/04 08:41:04;;;;;;;3.13;1.40;;;7.60;32.00;;;;;;4995026;28;20175;-73
2024/01/04 08:43:29;;;;;;;2.30;0.97;;;7.60;30.40;;;;;;4983542;28;20296;-69
2024/01/04 08:45:55;;;;;;;2.17;0.90;;;7.60;30.00;;;;;;5010197;28;20185;-69
2024/01/04 08:48:20;;;;;;;6.60;1.43;;;7.60;30.00;;;;;;5010906;28;20187;-69
2024/01/04 08:50:46;;;;;;;2.80;0.83;;;7.60;30.00;;;;;;5010334;28;20188;-68
2024/01/04 08:53:13;;;;;;;2.70;1.30;;;7.60;29.30;;;;;;5010133;28;20608;-69
2024/01/04 08:55:38;;;;;;;6.63;1.40;;;7.70;29.10;;;;;;5010801;28;20217;-68
2024/01/04 08:58:04;;;;;;;2.93;1.10;;;7.70;28.00;;;;;;5010985;28;20430;-69
2024/01/04 09:00:32;;;;;;;2.57;1.17;;;7.90;27.60;;;;;;5014087;28;20403;-70
2024/01/04 09:02:58;;;;;;;8.13;1.60;;;8.00;26.90;;;;;;5014143;28;20179;-70
2024/01/04 09:05:24;;;;;;;3.20;0.80;;;8.10;25.40;;;;;;5014808;28;20423;-70
2024/01/04 09:07:50;;;;;;;3.67;1.10;;;8.30;24.30;;;;;;4996697;28;20359;-70
2024/01/04 09:10:16;;;;;;;5.47;1.53;;;8.30;23.70;;;;;;5014210;28;21005;-70
2024/01/04 09:12:42;;;;;;;2.43;1.13;;;8.20;23.20;;;;;;5013984;28;20290;-70
2024/01/04 09:15:09;;;;;;;1.70;0.70;;;8.10;24.00;;;;;;5014087;28;20314;-69
2024/01/04 09:17:35;;;;;;;2.53;0.70;;;8.10;24.10;;;;;;5014096;28;20917;-70
2024/01/04 09:20:00;;;;;;;2.47;0.80;;;8.20;23.10;;;;;;5013895;28;20569;-70
2024/01/04 09:22:26;;;;;;;2.43;0.93;;;8.40;22.90;;;;;;5013976;28;20172;-70
2024/01/04 09:24:51;;;;;;;3.23;1.47;;;8.60;21.50;;;;;;5013886;28;20203;-69
2024/01/04 09:27:17;;;;;;;3.00;1.10;;;8.80;20.20;;;;;;5013783;28;20701;-69
2024/01/04 09:29:46;;;;;;;3.20;1.00;;;8.90;21.40;;;;;;5013923;28;20180;-68
2024/01/04 09:32:13;;;;;;;5.40;1.30;;;8.90;19.90;;;;;;5013524;28;20179;-70
2024/01/04 09:34:38;;;;;;;7.10;0.97;;;8.90;20.90;;;;;;5013502;28;20443;-68
2024/01/04 09:37:04;;;;;;;6.03;1.87;;;9.10;20.00;;;;;;5013680;28;20415;-69
2024/01/04 09:39:30;;;;;;;1.90;0.70;;;9.20;18.80;;;;;;5013690;28;20208;-70
2024/01/04 09:41:56;;;;;;;4.33;1.30;;;9.10;18.70;;;;;;5013379;28;20231;-68
2024/01/04 09:44:24;;;;;;;4.13;1.90;;;9.00;19.30;;;;;;5005027;28;20200;-69
2024/01/04 09:46:55;;;;;;;4.43;1.00;;;8.80;19.80;;;;;;5001030;28;20416;-68
2024/01/04 09:49:21;;;;;;;1.90;0.93;;;8.60;21.00;;;;;;5012752;28;20458;-68
2024/01/04 09:51:47;;;;;;;2.20;1.00;;;8.60;21.70;;;;;;5003316;28;21061;-69
2024/01/04 09:54:13;;;;;;;7.70;1.30;;;8.60;22.40;;;;;;4992235;28;20231;-69
2024/01/04 09:56:43;;;;;;;3.20;1.03;;;8.60;22.40;;;;;;4993752;28;20643;-69
2024/01/04 09:59:10;;;;;;;3.07;1.23;;;8.70;22.50;;;;;;4993474;28;20852;-69
2024/01/04 10:01:38;;;;;;;2.37;1.03;;;8.80;21.50;;;;;;4993382;28;20446;-72
2024/01/04 10:04:11;;;;;;;3.50;1.13;;;9.00;22.60;;;;;;4993044;28;20478;-68
2024/01/04 10:06:38;;;;;;;5.63;1.40;;;9.00;21.80;;;;;;4994242;28;20518;-68
2024/01/04 10:09:19;;;;;;;2.53;0.90;;;9.00;23.20;;;;;;5012518;28;20797;-68
2024/01/04 10:11:54;;;;;;;1.83;0.77;;;8.90;23.40;;;;;;4995014;28;20556;-68
2024/01/04 10:14:20;;;;;;;2.93;0.87;;;8.90;23.30;;;;;;5012550;28;20541;-68
2024/01/04 10:16:47;;;;;;;2.37;1.17;;;8.90;25.00;;;;;;5012474;28;20437;-68
2024/01/04 10:19:14;;;;;;;3.90;0.70;;;9.00;24.30;;;;;;4992150;28;21028;-69
2024/01/04 10:21:40;;;;;;;7.20;1.67;;;8.90;24.20;;;;;;5008146;28;20467;-73
2024/01/04 10:24:05;;;;;;;3.30;1.10;;;8.80;24.40;;;;;;5010733;28;20504;-73
2024/01/04 10:26:32;;;;;;;3.93;1.50;;;8.90;24.30;;;;;;5012177;28;20180;-70
2024/01/04 10:29:02;;;;;;;2.87;1.03;;;9.10;23.60;;;;;;4994821;28;20438;-67
2024/01/04 10:31:27;;;;;;;2.07;0.70;;;9.40;23.00;;;;;;5011743;28;20917;-69
2024/01/04 10:33:57;;;;;;;2.37;0.80;;;9.60;22.40;;;;;;4994891;28;20508;-69
2024/01/04 10:36:23;;;;;;;5.90;1.40;;;9.50;21.50;;;;;;5012205;28;20434;-69
2024/01/04 10:38:49;;;;;;;7.50;1.27;;;9.30;21.70;;;;;;5008578;28;20466;-69
2024/01/04 10:41:17;;;;;;;3.20;0.87;;;9.00;22.70;;;;;;5008889;28;20431;-69
2024/01/04 10:43:43;;;;;;;1.73;0.60;;;9.00;23.30;;;;;;5003300;28;20211;-71
2024/01/04 10:46:10;;;;;;;3.83;1.37;;;8.90;22.80;;;;;;4993804;28;20427;-69
2024/01/04 10:48:36;;;;;;;3.43;1.10;;;8.80;22.80;;;;;;5005955;28;20663;-69
2024/01/04 10:51:04;;;;;;;6.07;1.27;;;8.90;23.20;;;;;;4992263;28;20412;-69
2024/01/04 10:53:36;;;;;;;2.47;1.47;;;9.00;20.80;;;;;;4992040;28;20447;-68
2024/01/04 10:56:06;;;;;;;11.83;2.40;;;9.00;19.70;;;;;;4992511;28;20463;-69
2024/01/04 10:58:33;;;;;;;2.30;0.70;;;8.90;20.90;;;;;;4992297;28;20426;-69
2024/01/04 11:01:00;;;;;;;6.63;1.10;;;8.80;21.20;;;;;;4992343;28;20498;-68
2024/01/04 11:03:28;;;;;;;3.90;1.23;;;8.80;21.30;;;;;;4992406;28;20431;-69
2024/01/04 11:05:56;;;;;;;2.00;1.00;;;8.70;21.10;;;;;;4992411;28;20473;-69
2024/01/04 11:08:22;;;;;;;3.57;1.27;;;8.80;22.10;;;;;;4974871;28;20431;-68
2024/01/04 11:10:50;;;;;;;3.57;1.30;;;8.90;22.40;;;;;;4991984;28;21014;-69
2024/01/04 11:13:16;;;;;;;4.03;1.67;;;9.00;22.10;;;;;;4974769;28;20427;-69
2024/01/04 11:15:43;;;;;;;3.07;1.50;;;9.20;21.00;;;;;;4992383;28;20760;-69
2024/01/04 11:18:27;;;;;;;2.83;1.10;;;9.30;21.00;;;;;;4992248;28;20192;-69
2024/01/04 11:21:17;;;;;;;2.37;1.10;;;9.40;19.90;;;;;;4991912;28;20477;-69
2024/01/04 11:23:55;;;;;;;3.80;1.50;;;9.50;18.80;;;;;;4992226;28;20571;-69
2024/01/04 11:26:52;;;;;;;3.23;1.30;;;9.50;19.40;;;;;;4992242;28;20407;-69
2024/01/04 11:29:18;;;;;;;2.40;1.40;;;9.70;18.50;;;;;;4991351;28;20435;-69
2024/01/04 11:31:44;;;;;;;4.23;0.97;;;10.00;17.10;;;;;;4992141;28;20464;-69
2024/01/04 11:34:12;;;;;;;5.63;1.40;;;10.00;15.90;;;;;;4992317;28;20443;-69
2024/01/04 11:36:39;;;;;;;4.83;1.40;;;10.00;16.00;;;;;;4992332;28;20439;-69
2024/01/04 11:39:24;;;;;;;3.73;1.23;;;10.10;15.60;;;;;;4992293;28;20463;-69
2024/01/04 11:41:53;;;;;;;4.83;1.37;;;9.90;16.50;;;;;;4974528;28;20534;-69
2024/01/04 11:44:18;;;;;;;4.10;2.13;;;10.00;15.20;;;;;;4977691;28;20506;-69
2024/01/04 11:46:44;;;;;;;5.63;1.07;;;10.00;14.10;;;;;;4978732;28;20420;-69
2024/01/04 11:49:14;;;;;;;3.50;1.20;;;10.00;14.10;;;;;;4996293;28;20181;-69
2024/01/04 11:51:40;;;;;;;2.67;1.10;;;9.80;14.70;;;;;;4995830;28;20234;-70
2024/01/04 11:54:08;;;;;;;4.23;1.43;;;9.80;14.70;;;;;;4978330;28;20827;-70
2024/01/04 11:56:33;;;;;;;2.67;1.60;;;9.90;14.80;;;;;;4996030;28;20447;-70
2024/01/04 11:59:09;;;;;;;4.70;1.23;;;9.80;14.70;;;;;;4996072;28;20549;-69
2024/01/04 12:01:43;;;;;;;2.20;1.10;;;9.60;15.20;;;;;;4978336;28;20518;-69
2024/01/04 12:04:13;;;;;;;3.70;1.27;;;9.40;15.50;;;;;;4995896;28;20546;-69
2024/01/04 12:06:43;;;;;;;9.37;1.10;;;9.30;15.80;;;;;;4996051;28;20562;-70
2024/01/04 12:09:10;;;;;;;3.53;1.10;;;9.40;15.80;;;;;;4995769;28;20420;-69
2024/01/04 12:11:39;;;;;;;1.90;0.90;;;9.70;15.70;;;;;;4995366;28;20419;-69
2024/01/04 12:14:06;;;;;;;2.87;1.20;;;9.90;15.30;;;;;;4995448;28;20451;-69
2024/01/04 12:16:32;;;;;;;2.60;1.30;;;9.80;14.70;;;;;;4995288;28;20418;-69
2024/01/04 12:18:58;;;;;;;4.30;1.03;;;9.90;14.70;;;;;;4995108;28;20939;-69
2024/01/04 12:21:25;;;;;;;2.10;0.87;;;9.80;14.70;;;;;;4994989;28;20208;-68
2024/01/04 12:23:52;;;;;;;4.47;0.97;;;9.70;14.60;;;;;;4995167;28;20611;-69
2024/01/04 12:26:19;;;;;;;2.10;1.10;;;9.60;15.70;;;;;;4995080;28;20418;-69
2024/01/04 12:28:44;;;;;;;3.40;1.23;;;9.60;15.20;;;;;;4995050;28;20506;-69
2024/01/04 12:31:11;;;;;;;3.23;1.03;;;10.00;14.10;;;;;;4993597;28;20862;-70
2024/01/04 12:33:39;;;;;;;2.73;1.30;;;10.20;14.20;;;;;;4994840;28;20188;-69
2024/01/04 12:36:05;;;;;;;3.83;1.33;;;10.20;13.40;;;;;;4995287;28;20919;-69
2024/01/04 12:38:30;;;;;;;3.37;1.10;;;10.40;13.50;;;;;;4994716;28;20415;-70
2024/01/04 12:40:56;;;;;;;2.60;1.30;;;10.30;13.20;;;;;;4994608;28;20611;-69
2024/01/04 12:43:23;;;;;;;6.63;2.10;;;10.60;13.10;;;;;;4995189;28;20209;-69
2024/01/04 12:46:08;;;;;;;4.13;1.30;;;10.50;12.10;;;;;;4994904;28;20176;-70
2024/01/04 12:48:34;;;;;;;4.17;1.30;;;10.60;12.60;;;;;;4994995;28;20578;-69
2024/01/04 12:51:11;;;;;;;4.83;1.20;;;10.90;12.30;;;;;;4994554;28;20451;-68